Terminal Aerodrome Forecast
Issued by NWS

Home | Current Version | Previous Version | Text Only | Print | Product List | Glossary On
Versions: 1 2 3 4 5 6 7 8 9 10 11 12 13 14 15 16 17 18 19 20 21 22 23 24 25 26
000
FTUS42 KJAX 061122
TAFCRG
TAF
KCRG 061122Z 0612/0712 02013G22KT 3SM -SHRA BR OVC007
     FM061400 02012G18KT 5SM -SHRA BR OVC007
     FM061800 02010G19KT 4SM -SHRA BR OVC003
     FM062300 01011KT 6SM BR OVC010
     FM070300 01008KT P6SM SCT020 BKN250
     FM070700 01011KT P6SM SKC=

USA.gov is the U.S. government's official web portal to all federal, state and local government web resources and services.